sensor_id;sensor_type;location;lat;lon;timestamp;P1;durP1;ratioP1;P2;durP2;ratioP2
60641;SDS011;46837;52.446;-1.930;2023-12-14T00:00:07;14.76;;;7.50;;
60641;SDS011;46837;52.446;-1.930;2023-12-14T00:01:11;17.68;;;7.68;;
60641;SDS011;46837;52.446;-1.930;2023-12-14T00:02:07;26.02;;;9.26;;
60641;SDS011;46837;52.446;-1.930;2023-12-14T00:03:07;17.88;;;7.84;;
60641;SDS011;46837;52.446;-1.930;2023-12-14T00:04:07;17.60;;;9.32;;
60641;SDS011;46837;52.446;-1.930;2023-12-14T00:05:07;13.92;;;8.42;;
60641;SDS011;46837;52.446;-1.930;2023-12-14T00:06:07;25.72;;;9.14;;
60641;SDS011;46837;52.446;-1.930;2023-12-14T00:07:07;15.18;;;8.64;;
60641;SDS011;46837;52.446;-1.930;2023-12-14T00:08:07;16.12;;;7.64;;
60641;SDS011;46837;52.446;-1.930;2023-12-14T00:09:07;21.36;;;9.30;;
60641;SDS011;46837;52.446;-1.930;2023-12-14T00:10:07;18.94;;;9.38;;
60641;SDS011;46837;52.446;-1.930;2023-12-14T00:11:07;18.26;;;8.92;;
60641;SDS011;46837;52.446;-1.930;2023-12-14T00:12:07;15.92;;;8.28;;
60641;SDS011;46837;52.446;-1.930;2023-12-14T00:13:07;15.88;;;7.92;;
60641;SDS011;46837;52.446;-1.930;2023-12-14T00:14:07;15.00;;;8.28;;
60641;SDS011;46837;52.446;-1.930;2023-12-14T00:15:07;14.98;;;7.74;;
60641;SDS011;46837;52.446;-1.930;2023-12-14T00:16:07;20.48;;;9.72;;
60641;SDS011;46837;52.446;-1.930;2023-12-14T00:17:07;16.36;;;8.24;;
60641;SDS011;46837;52.446;-1.930;2023-12-14T00:18:07;16.90;;;8.68;;
60641;SDS011;46837;52.446;-1.930;2023-12-14T00:19:07;20.42;;;8.80;;
60641;SDS011;46837;52.446;-1.930;2023-12-14T00:20:07;21.40;;;9.72;;
60641;SDS011;46837;52.446;-1.930;2023-12-14T00:21:07;17.36;;;9.98;;
60641;SDS011;46837;52.446;-1.930;2023-12-14T00:22:07;18.20;;;9.50;;
60641;SDS011;46837;52.446;-1.930;2023-12-14T00:23:07;19.02;;;9.52;;
60641;SDS011;46837;52.446;-1.930;2023-12-14T00:24:07;15.76;;;9.50;;
60641;SDS011;46837;52.446;-1.930;2023-12-14T00:25:07;14.30;;;8.88;;
60641;SDS011;46837;52.446;-1.930;2023-12-14T00:26:07;18.94;;;8.56;;
60641;SDS011;46837;52.446;-1.930;2023-12-14T00:27:07;14.22;;;8.10;;
60641;SDS011;46837;52.446;-1.930;2023-12-14T00:28:07;24.54;;;10.08;;
60641;SDS011;46837;52.446;-1.930;2023-12-14T00:29:07;22.42;;;9.30;;
60641;SDS011;46837;52.446;-1.930;2023-12-14T00:30:07;20.24;;;9.58;;
60641;SDS011;46837;52.446;-1.930;2023-12-14T00:31:07;20.00;;;9.68;;
60641;SDS011;46837;52.446;-1.930;2023-12-14T00:32:07;16.36;;;10.06;;
60641;SDS011;46837;52.446;-1.930;2023-12-14T00:33:07;17.60;;;8.50;;
60641;SDS011;46837;52.446;-1.930;2023-12-14T00:34:07;22.40;;;9.48;;
60641;SDS011;46837;52.446;-1.930;2023-12-14T00:35:07;13.78;;;8.74;;
60641;SDS011;46837;52.446;-1.930;2023-12-14T00:36:07;15.96;;;8.60;;
60641;SDS011;46837;52.446;-1.930;2023-12-14T00:37:07;18.68;;;9.32;;
60641;SDS011;46837;52.446;-1.930;2023-12-14T00:38:07;18.26;;;9.56;;
60641;SDS011;46837;52.446;-1.930;2023-12-14T00:39:07;22.68;;;10.32;;
60641;SDS011;46837;52.446;-1.930;2023-12-14T00:40:07;14.76;;;9.58;;
60641;SDS011;46837;52.446;-1.930;2023-12-14T00:41:07;13.38;;;8.16;;
60641;SDS011;46837;52.446;-1.930;2023-12-14T00:42:07;19.48;;;8.96;;
60641;SDS011;46837;52.446;-1.930;2023-12-14T00:43:07;24.64;;;10.34;;
60641;SDS011;46837;52.446;-1.930;2023-12-14T00:44:07;15.38;;;10.64;;
60641;SDS011;46837;52.446;-1.930;2023-12-14T00:45:07;23.18;;;10.22;;
60641;SDS011;46837;52.446;-1.930;2023-12-14T00:46:07;17.20;;;7.80;;
60641;SDS011;46837;52.446;-1.930;2023-12-14T00:47:07;18.34;;;10.22;;
60641;SDS011;46837;52.446;-1.930;2023-12-14T00:48:07;18.58;;;8.62;;
60641;SDS011;46837;52.446;-1.930;2023-12-14T00:49:07;18.88;;;8.76;;
60641;SDS011;46837;52.446;-1.930;2023-12-14T00:50:07;13.68;;;7.70;;
60641;SDS011;46837;52.446;-1.930;2023-12-14T00:51:07;20.64;;;9.38;;
60641;SDS011;46837;52.446;-1.930;2023-12-14T00:52:07;16.82;;;8.50;;
60641;SDS011;46837;52.446;-1.930;2023-12-14T00:53:07;17.44;;;8.16;;
60641;SDS011;46837;52.446;-1.930;2023-12-14T00:54:07;20.90;;;8.90;;
60641;SDS011;46837;52.446;-1.930;2023-12-14T00:55:07;16.68;;;7.80;;
60641;SDS011;46837;52.446;-1.930;2023-12-14T00:56:07;14.18;;;8.58;;
60641;SDS011;46837;52.446;-1.930;2023-12-14T00:57:07;20.70;;;9.30;;
60641;SDS011;46837;52.446;-1.930;2023-12-14T00:58:07;18.32;;;9.02;;
60641;SDS011;46837;52.446;-1.930;2023-12-14T00:59:07;18.98;;;9.62;;
60641;SDS011;46837;52.446;-1.930;2023-12-14T01:00:07;14.98;;;7.32;;
60641;SDS011;46837;52.446;-1.930;2023-12-14T01:01:07;15.98;;;7.52;;
60641;SDS011;46837;52.446;-1.930;2023-12-14T01:02:07;14.22;;;7.76;;
60641;SDS011;46837;52.446;-1.930;2023-12-14T01:03:07;17.94;;;8.14;;
60641;SDS011;46837;52.446;-1.930;2023-12-14T01:04:07;15.70;;;7.98;;
60641;SDS011;46837;52.446;-1.930;2023-12-14T01:05:07;21.64;;;8.62;;
60641;SDS011;46837;52.446;-1.930;2023-12-14T01:06:07;20.16;;;9.80;;
60641;SDS011;46837;52.446;-1.930;2023-12-14T01:07:07;16.64;;;8.16;;
60641;SDS011;46837;52.446;-1.930;2023-12-14T01:08:07;17.58;;;8.54;;
60641;SDS011;46837;52.446;-1.930;2023-12-14T01:09:07;17.36;;;8.50;;
60641;SDS011;46837;52.446;-1.930;2023-12-14T01:10:07;12.10;;;7.48;;
60641;SDS011;46837;52.446;-1.930;2023-12-14T01:11:07;13.00;;;8.30;;
60641;SDS011;46837;52.446;-1.930;2023-12-14T01:12:07;18.90;;;8.62;;
60641;SDS011;46837;52.446;-1.930;2023-12-14T01:13:07;14.18;;;6.42;;
60641;SDS011;46837;52.446;-1.930;2023-12-14T01:14:07;21.56;;;9.04;;
60641;SDS011;46837;52.446;-1.930;2023-12-14T01:15:07;21.08;;;9.24;;
60641;SDS011;46837;52.446;-1.930;2023-12-14T01:16:07;17.34;;;8.16;;
60641;SDS011;46837;52.446;-1.930;2023-12-14T01:17:07;16.58;;;8.94;;
60641;SDS011;46837;52.446;-1.930;2023-12-14T01:18:07;17.04;;;8.52;;
60641;SDS011;46837;52.446;-1.930;2023-12-14T01:19:07;22.04;;;9.30;;
60641;SDS011;46837;52.446;-1.930;2023-12-14T01:20:07;21.06;;;9.54;;
60641;SDS011;46837;52.446;-1.930;2023-12-14T01:21:07;15.62;;;8.32;;
60641;SDS011;46837;52.446;-1.930;2023-12-14T01:22:07;16.78;;;8.42;;
60641;SDS011;46837;52.446;-1.930;2023-12-14T01:23:07;23.58;;;9.36;;
60641;SDS011;46837;52.446;-1.930;2023-12-14T01:24:07;16.84;;;7.74;;
60641;SDS011;46837;52.446;-1.930;2023-12-14T01:25:07;16.62;;;8.70;;
60641;SDS011;46837;52.446;-1.930;2023-12-14T01:26:07;19.24;;;8.00;;
60641;SDS011;46837;52.446;-1.930;2023-12-14T01:27:07;19.36;;;8.14;;
60641;SDS011;46837;52.446;-1.930;2023-12-14T01:28:07;14.70;;;8.52;;
60641;SDS011;46837;52.446;-1.930;2023-12-14T01:29:07;20.94;;;8.78;;
60641;SDS011;46837;52.446;-1.930;2023-12-14T01:30:07;23.62;;;8.36;;
60641;SDS011;46837;52.446;-1.930;2023-12-14T01:31:07;15.06;;;7.02;;
60641;SDS011;46837;52.446;-1.930;2023-12-14T01:32:07;16.88;;;8.34;;
60641;SDS011;46837;52.446;-1.930;2023-12-14T01:33:07;18.88;;;8.30;;
60641;SDS011;46837;52.446;-1.930;2023-12-14T01:34:07;14.88;;;7.06;;
60641;SDS011;46837;52.446;-1.930;2023-12-14T01:35:07;16.50;;;8.14;;
60641;SDS011;46837;52.446;-1.930;2023-12-14T01:36:07;27.16;;;9.42;;
60641;SDS011;46837;52.446;-1.930;2023-12-14T01:37:07;19.78;;;7.98;;
60641;SDS011;46837;52.446;-1.930;2023-12-14T01:38:07;17.94;;;8.18;;
60641;SDS011;46837;52.446;-1.930;2023-12-14T01:39:07;15.58;;;7.30;;
60641;SDS011;46837;52.446;-1.930;2023-12-14T01:40:07;11.08;;;6.68;;
60641;SDS011;46837;52.446;-1.930;2023-12-14T01:41:07;20.08;;;8.52;;
60641;SDS011;46837;52.446;-1.930;2023-12-14T01:42:07;20.36;;;8.92;;
60641;SDS011;46837;52.446;-1.930;2023-12-14T01:43:07;18.56;;;9.14;;
60641;SDS011;46837;52.446;-1.930;2023-12-14T01:44:07;21.02;;;7.82;;
60641;SDS011;46837;52.446;-1.930;2023-12-14T01:45:07;17.78;;;8.84;;
60641;SDS011;46837;52.446;-1.930;2023-12-14T01:46:07;15.82;;;7.24;;
60641;SDS011;46837;52.446;-1.930;2023-12-14T01:47:07;13.40;;;6.80;;
60641;SDS011;46837;52.446;-1.930;2023-12-14T01:48:07;11.74;;;6.66;;
60641;SDS011;46837;52.446;-1.930;2023-12-14T01:49:07;11.04;;;6.58;;
60641;SDS011;46837;52.446;-1.930;2023-12-14T01:50:07;16.86;;;7.54;;
60641;SDS011;46837;52.446;-1.930;2023-12-14T01:51:07;18.50;;;7.90;;
60641;SDS011;46837;52.446;-1.930;2023-12-14T01:52:07;18.96;;;8.28;;
60641;SDS011;46837;52.446;-1.930;2023-12-14T01:53:07;15.36;;;6.34;;
60641;SDS011;46837;52.446;-1.930;2023-12-14T01:54:07;15.94;;;8.60;;
60641;SDS011;46837;52.446;-1.930;2023-12-14T01:55:07;10.86;;;7.36;;
60641;SDS011;46837;52.446;-1.930;2023-12-14T01:56:07;12.04;;;7.94;;
60641;SDS011;46837;52.446;-1.930;2023-12-14T01:57:07;13.94;;;8.68;;
60641;SDS011;46837;52.446;-1.930;2023-12-14T01:58:07;23.16;;;9.06;;
60641;SDS011;46837;52.446;-1.930;2023-12-14T01:59:07;10.48;;;6.56;;
60641;SDS011;46837;52.446;-1.930;2023-12-14T02:00:07;24.00;;;9.72;;
60641;SDS011;46837;52.446;-1.930;2023-12-14T02:02:07;15.58;;;10.24;;
60641;SDS011;46837;52.446;-1.930;2023-12-14T02:03:07;12.86;;;7.90;;
60641;SDS011;46837;52.446;-1.930;2023-12-14T02:04:07;18.66;;;7.74;;
60641;SDS011;46837;52.446;-1.930;2023-12-14T02:05:07;43.38;;;10.90;;
60641;SDS011;46837;52.446;-1.930;2023-12-14T02:06:07;11.86;;;6.74;;
60641;SDS011;46837;52.446;-1.930;2023-12-14T02:07:07;22.90;;;8.32;;
60641;SDS011;46837;52.446;-1.930;2023-12-14T02:08:07;17.02;;;8.42;;
60641;SDS011;46837;52.446;-1.930;2023-12-14T02:09:07;14.56;;;7.84;;
60641;SDS011;46837;52.446;-1.930;2023-12-14T02:10:07;14.92;;;7.74;;
60641;SDS011;46837;52.446;-1.930;2023-12-14T02:11:07;13.62;;;7.40;;
60641;SDS011;46837;52.446;-1.930;2023-12-14T02:12:07;13.56;;;7.52;;
60641;SDS011;46837;52.446;-1.930;2023-12-14T02:13:07;22.04;;;7.86;;
60641;SDS011;46837;52.446;-1.930;2023-12-14T02:14:08;17.66;;;8.44;;
60641;SDS011;46837;52.446;-1.930;2023-12-14T02:15:07;21.42;;;10.14;;
60641;SDS011;46837;52.446;-1.930;2023-12-14T02:16:07;10.48;;;7.80;;
60641;SDS011;46837;52.446;-1.930;2023-12-14T02:17:07;13.42;;;7.28;;
60641;SDS011;46837;52.446;-1.930;2023-12-14T02:18:07;25.18;;;7.72;;
60641;SDS011;46837;52.446;-1.930;2023-12-14T02:19:07;14.52;;;8.46;;
60641;SDS011;46837;52.446;-1.930;2023-12-14T02:20:07;17.88;;;9.10;;
60641;SDS011;46837;52.446;-1.930;2023-12-14T02:21:07;16.76;;;8.18;;
60641;SDS011;46837;52.446;-1.930;2023-12-14T02:22:07;16.18;;;8.56;;
60641;SDS011;46837;52.446;-1.930;2023-12-14T02:23:07;13.56;;;8.14;;
60641;SDS011;46837;52.446;-1.930;2023-12-14T02:24:07;19.92;;;10.78;;
60641;SDS011;46837;52.446;-1.930;2023-12-14T02:25:07;20.16;;;10.34;;
60641;SDS011;46837;52.446;-1.930;2023-12-14T02:26:07;15.02;;;9.42;;
60641;SDS011;46837;52.446;-1.930;2023-12-14T02:27:07;30.40;;;13.58;;
60641;SDS011;46837;52.446;-1.930;2023-12-14T02:28:07;34.24;;;15.88;;
60641;SDS011;46837;52.446;-1.930;2023-12-14T02:29:07;30.50;;;15.96;;
60641;SDS011;46837;52.446;-1.930;2023-12-14T02:30:07;26.28;;;14.02;;
60641;SDS011;46837;52.446;-1.930;2023-12-14T02:31:07;28.24;;;12.48;;
60641;SDS011;46837;52.446;-1.930;2023-12-14T02:32:07;25.36;;;13.22;;
60641;SDS011;46837;52.446;-1.930;2023-12-14T02:33:07;21.02;;;11.06;;
60641;SDS011;46837;52.446;-1.930;2023-12-14T02:34:07;21.92;;;11.98;;
60641;SDS011;46837;52.446;-1.930;2023-12-14T02:35:07;20.16;;;10.74;;
60641;SDS011;46837;52.446;-1.930;2023-12-14T02:36:07;15.36;;;8.90;;
60641;SDS011;46837;52.446;-1.930;2023-12-14T02:37:07;18.02;;;8.24;;
60641;SDS011;46837;52.446;-1.930;2023-12-14T02:38:07;14.82;;;7.34;;
60641;SDS011;46837;52.446;-1.930;2023-12-14T02:39:07;12.36;;;6.52;;
60641;SDS011;46837;52.446;-1.930;2023-12-14T02:40:07;16.52;;;8.22;;
60641;SDS011;46837;52.446;-1.930;2023-12-14T02:41:07;12.44;;;7.32;;
60641;SDS011;46837;52.446;-1.930;2023-12-14T02:42:07;15.14;;;8.10;;
60641;SDS011;46837;52.446;-1.930;2023-12-14T02:43:07;16.90;;;6.82;;
60641;SDS011;46837;52.446;-1.930;2023-12-14T02:44:07;11.94;;;7.46;;
60641;SDS011;46837;52.446;-1.930;2023-12-14T02:45:07;12.92;;;6.80;;
60641;SDS011;46837;52.446;-1.930;2023-12-14T02:46:07;12.10;;;6.64;;
60641;SDS011;46837;52.446;-1.930;2023-12-14T02:47:07;10.10;;;6.10;;
60641;SDS011;46837;52.446;-1.930;2023-12-14T02:48:07;19.64;;;7.88;;
60641;SDS011;46837;52.446;-1.930;2023-12-14T02:49:07;13.62;;;7.08;;
60641;SDS011;46837;52.446;-1.930;2023-12-14T02:50:07;14.34;;;7.74;;
60641;SDS011;46837;52.446;-1.930;2023-12-14T02:51:07;12.52;;;6.80;;
60641;SDS011;46837;52.446;-1.930;2023-12-14T02:52:07;20.60;;;8.10;;
60641;SDS011;46837;52.446;-1.930;2023-12-14T02:53:07;18.04;;;7.28;;
60641;SDS011;46837;52.446;-1.930;2023-12-14T02:54:07;18.92;;;7.98;;
60641;SDS011;46837;52.446;-1.930;2023-12-14T02:55:07;14.40;;;6.62;;
60641;SDS011;46837;52.446;-1.930;2023-12-14T02:56:08;11.42;;;6.50;;
60641;SDS011;46837;52.446;-1.930;2023-12-14T02:57:07;17.62;;;7.68;;
60641;SDS011;46837;52.446;-1.930;2023-12-14T02:58:07;14.24;;;6.62;;
60641;SDS011;46837;52.446;-1.930;2023-12-14T02:59:07;12.60;;;6.96;;
60641;SDS011;46837;52.446;-1.930;2023-12-14T03:00:07;10.80;;;7.48;;
60641;SDS011;46837;52.446;-1.930;2023-12-14T03:01:07;15.62;;;7.48;;
60641;SDS011;46837;52.446;-1.930;2023-12-14T03:02:07;17.20;;;7.28;;
60641;SDS011;46837;52.446;-1.930;2023-12-14T03:03:07;9.34;;;6.26;;
60641;SDS011;46837;52.446;-1.930;2023-12-14T03:04:07;16.22;;;7.36;;
60641;SDS011;46837;52.446;-1.930;2023-12-14T03:05:07;10.90;;;6.74;;
60641;SDS011;46837;52.446;-1.930;2023-12-14T03:06:07;16.18;;;6.38;;
60641;SDS011;46837;52.446;-1.930;2023-12-14T03:07:07;10.82;;;7.56;;
60641;SDS011;46837;52.446;-1.930;2023-12-14T03:08:07;16.24;;;6.72;;
60641;SDS011;46837;52.446;-1.930;2023-12-14T03:09:07;19.20;;;8.52;;
60641;SDS011;46837;52.446;-1.930;2023-12-14T03:10:07;16.26;;;7.04;;
60641;SDS011;46837;52.446;-1.930;2023-12-14T03:11:07;11.96;;;7.32;;
60641;SDS011;46837;52.446;-1.930;2023-12-14T03:12:07;11.18;;;6.76;;
60641;SDS011;46837;52.446;-1.930;2023-12-14T03:13:07;16.70;;;7.22;;
60641;SDS011;46837;52.446;-1.930;2023-12-14T03:14:07;15.04;;;6.96;;
60641;SDS011;46837;52.446;-1.930;2023-12-14T03:15:07;12.34;;;6.86;;
60641;SDS011;46837;52.446;-1.930;2023-12-14T03:16:07;12.00;;;6.20;;
60641;SDS011;46837;52.446;-1.930;2023-12-14T03:17:07;13.22;;;6.56;;
60641;SDS011;46837;52.446;-1.930;2023-12-14T03:18:07;15.44;;;6.84;;
60641;SDS011;46837;52.446;-1.930;2023-12-14T03:19:07;14.90;;;6.96;;
60641;SDS011;46837;52.446;-1.930;2023-12-14T03:20:07;13.96;;;6.16;;
60641;SDS011;46837;52.446;-1.930;2023-12-14T03:21:07;14.28;;;6.46;;
60641;SDS011;46837;52.446;-1.930;2023-12-14T03:22:07;11.60;;;6.84;;
60641;SDS011;46837;52.446;-1.930;2023-12-14T03:23:07;13.14;;;6.16;;
60641;SDS011;46837;52.446;-1.930;2023-12-14T03:24:07;14.34;;;6.72;;
60641;SDS011;46837;52.446;-1.930;2023-12-14T03:25:07;14.24;;;5.86;;
60641;SDS011;46837;52.446;-1.930;2023-12-14T03:26:07;10.70;;;6.88;;
60641;SDS011;46837;52.446;-1.930;2023-12-14T03:27:07;9.98;;;5.24;;
60641;SDS011;46837;52.446;-1.930;2023-12-14T03:28:07;12.96;;;5.88;;
60641;SDS011;46837;52.446;-1.930;2023-12-14T03:29:07;13.92;;;6.32;;
60641;SDS011;46837;52.446;-1.930;2023-12-14T03:30:08;9.20;;;6.02;;
60641;SDS011;46837;52.446;-1.930;2023-12-14T03:31:07;8.04;;;4.80;;
60641;SDS011;46837;52.446;-1.930;2023-12-14T03:32:07;14.64;;;6.18;;
60641;SDS011;46837;52.446;-1.930;2023-12-14T03:33:08;15.78;;;5.56;;
60641;SDS011;46837;52.446;-1.930;2023-12-14T03:34:07;10.06;;;5.38;;
60641;SDS011;46837;52.446;-1.930;2023-12-14T03:35:07;11.08;;;4.66;;
60641;SDS011;46837;52.446;-1.930;2023-12-14T03:36:07;10.82;;;7.44;;
60641;SDS011;46837;52.446;-1.930;2023-12-14T03:37:07;12.16;;;6.06;;
60641;SDS011;46837;52.446;-1.930;2023-12-14T03:38:07;10.16;;;5.64;;
60641;SDS011;46837;52.446;-1.930;2023-12-14T03:39:07;8.82;;;4.40;;
60641;SDS011;46837;52.446;-1.930;2023-12-14T03:40:07;11.60;;;4.48;;
60641;SDS011;46837;52.446;-1.930;2023-12-14T03:41:07;11.90;;;5.46;;
60641;SDS011;46837;52.446;-1.930;2023-12-14T03:42:07;9.64;;;3.32;;
60641;SDS011;46837;52.446;-1.930;2023-12-14T03:43:07;5.46;;;3.32;;
60641;SDS011;46837;52.446;-1.930;2023-12-14T03:44:07;12.16;;;2.82;;
60641;SDS011;46837;52.446;-1.930;2023-12-14T03:45:07;7.04;;;3.00;;
60641;SDS011;46837;52.446;-1.930;2023-12-14T03:46:07;8.70;;;3.12;;
60641;SDS011;46837;52.446;-1.930;2023-12-14T03:47:07;10.40;;;3.00;;
60641;SDS011;46837;52.446;-1.930;2023-12-14T03:48:07;7.72;;;2.84;;
60641;SDS011;46837;52.446;-1.930;2023-12-14T03:49:07;8.22;;;3.68;;
60641;SDS011;46837;52.446;-1.930;2023-12-14T03:50:07;8.82;;;2.48;;
60641;SDS011;46837;52.446;-1.930;2023-12-14T03:51:07;11.02;;;2.34;;
60641;SDS011;46837;52.446;-1.930;2023-12-14T03:52:07;8.24;;;3.12;;
60641;SDS011;46837;52.446;-1.930;2023-12-14T03:53:07;14.82;;;2.56;;
60641;SDS011;46837;52.446;-1.930;2023-12-14T03:54:07;12.68;;;2.80;;
60641;SDS011;46837;52.446;-1.930;2023-12-14T03:55:07;8.10;;;2.34;;
60641;SDS011;46837;52.446;-1.930;2023-12-14T03:56:07;10.68;;;2.72;;
60641;SDS011;46837;52.446;-1.930;2023-12-14T03:57:07;10.98;;;3.10;;
60641;SDS011;46837;52.446;-1.930;2023-12-14T03:58:07;11.24;;;2.40;;
60641;SDS011;46837;52.446;-1.930;2023-12-14T03:59:07;7.10;;;2.34;;
60641;SDS011;46837;52.446;-1.930;2023-12-14T04:00:10;5.84;;;2.32;;
60641;SDS011;46837;52.446;-1.930;2023-12-14T04:01:07;8.32;;;2.78;;
60641;SDS011;46837;52.446;-1.930;2023-12-14T04:02:07;9.16;;;2.52;;
60641;SDS011;46837;52.446;-1.930;2023-12-14T04:03:07;6.94;;;2.26;;
60641;SDS011;46837;52.446;-1.930;2023-12-14T04:04:07;8.32;;;3.04;;
60641;SDS011;46837;52.446;-1.930;2023-12-14T04:05:07;10.50;;;4.06;;
60641;SDS011;46837;52.446;-1.930;2023-12-14T04:06:07;10.70;;;2.78;;
60641;SDS011;46837;52.446;-1.930;2023-12-14T04:07:07;7.46;;;3.16;;
60641;SDS011;46837;52.446;-1.930;2023-12-14T04:08:07;6.56;;;3.06;;
60641;SDS011;46837;52.446;-1.930;2023-12-14T04:09:07;14.60;;;2.90;;
60641;SDS011;46837;52.446;-1.930;2023-12-14T04:10:10;12.22;;;2.56;;
60641;SDS011;46837;52.446;-1.930;2023-12-14T04:11:07;5.28;;;2.62;;
60641;SDS011;46837;52.446;-1.930;2023-12-14T04:12:07;5.06;;;2.76;;
60641;SDS011;46837;52.446;-1.930;2023-12-14T04:13:07;5.86;;;3.08;;
60641;SDS011;46837;52.446;-1.930;2023-12-14T04:14:07;8.86;;;2.94;;
60641;SDS011;46837;52.446;-1.930;2023-12-14T04:15:07;9.86;;;2.50;;
60641;SDS011;46837;52.446;-1.930;2023-12-14T04:16:07;5.56;;;2.80;;
60641;SDS011;46837;52.446;-1.930;2023-12-14T04:17:07;11.42;;;2.40;;
60641;SDS011;46837;52.446;-1.930;2023-12-14T04:18:07;9.56;;;3.12;;
60641;SDS011;46837;52.446;-1.930;2023-12-14T04:19:10;6.14;;;2.04;;
60641;SDS011;46837;52.446;-1.930;2023-12-14T04:20:07;5.92;;;3.14;;
60641;SDS011;46837;52.446;-1.930;2023-12-14T04:21:07;11.56;;;2.80;;
60641;SDS011;46837;52.446;-1.930;2023-12-14T04:22:07;7.84;;;2.46;;
60641;SDS011;46837;52.446;-1.930;2023-12-14T04:23:07;10.80;;;2.94;;
60641;SDS011;46837;52.446;-1.930;2023-12-14T04:24:07;17.34;;;2.80;;
60641;SDS011;46837;52.446;-1.930;2023-12-14T04:25:07;11.60;;;2.96;;
60641;SDS011;46837;52.446;-1.930;2023-12-14T04:26:07;8.04;;;2.72;;
60641;SDS011;46837;52.446;-1.930;2023-12-14T04:27:07;9.32;;;2.44;;
60641;SDS011;46837;52.446;-1.930;2023-12-14T04:28:07;12.18;;;2.74;;
60641;SDS011;46837;52.446;-1.930;2023-12-14T04:29:07;11.58;;;2.22;;
60641;SDS011;46837;52.446;-1.930;2023-12-14T04:30:07;11.96;;;3.28;;
60641;SDS011;46837;52.446;-1.930;2023-12-14T04:31:07;9.32;;;3.20;;
60641;SDS011;46837;52.446;-1.930;2023-12-14T04:32:07;7.34;;;2.42;;
60641;SDS011;46837;52.446;-1.930;2023-12-14T04:33:07;10.76;;;2.26;;
60641;SDS011;46837;52.446;-1.930;2023-12-14T04:34:07;7.28;;;2.52;;
60641;SDS011;46837;52.446;-1.930;2023-12-14T04:35:07;7.82;;;2.94;;
60641;SDS011;46837;52.446;-1.930;2023-12-14T04:36:07;7.02;;;2.42;;
60641;SDS011;46837;52.446;-1.930;2023-12-14T04:37:07;7.04;;;2.22;;
60641;SDS011;46837;52.446;-1.930;2023-12-14T04:38:07;11.22;;;3.40;;
60641;SDS011;46837;52.446;-1.930;2023-12-14T04:39:07;4.28;;;2.40;;
60641;SDS011;46837;52.446;-1.930;2023-12-14T04:40:07;7.94;;;2.74;;
60641;SDS011;46837;52.446;-1.930;2023-12-14T04:41:07;10.74;;;3.04;;
60641;SDS011;46837;52.446;-1.930;2023-12-14T04:42:07;3.62;;;2.42;;
60641;SDS011;46837;52.446;-1.930;2023-12-14T04:43:07;7.12;;;2.66;;
60641;SDS011;46837;52.446;-1.930;2023-12-14T04:44:07;5.58;;;2.14;;
60641;SDS011;46837;52.446;-1.930;2023-12-14T04:45:07;5.30;;;2.60;;
60641;SDS011;46837;52.446;-1.930;2023-12-14T04:46:07;11.76;;;2.88;;
60641;SDS011;46837;52.446;-1.930;2023-12-14T04:47:07;8.18;;;2.58;;
60641;SDS011;46837;52.446;-1.930;2023-12-14T04:48:07;7.08;;;2.42;;
60641;SDS011;46837;52.446;-1.930;2023-12-14T04:49:07;5.84;;;2.12;;
60641;SDS011;46837;52.446;-1.930;2023-12-14T04:50:07;10.76;;;2.72;;
60641;SDS011;46837;52.446;-1.930;2023-12-14T04:51:10;14.14;;;2.92;;
60641;SDS011;46837;52.446;-1.930;2023-12-14T04:52:07;7.16;;;2.62;;
60641;SDS011;46837;52.446;-1.930;2023-12-14T04:53:07;7.34;;;2.30;;
60641;SDS011;46837;52.446;-1.930;2023-12-14T04:54:07;11.10;;;2.74;;
60641;SDS011;46837;52.446;-1.930;2023-12-14T04:55:07;4.86;;;2.34;;
60641;SDS011;46837;52.446;-1.930;2023-12-14T04:56:10;12.10;;;3.70;;
60641;SDS011;46837;52.446;-1.930;2023-12-14T04:57:07;10.22;;;3.40;;
60641;SDS011;46837;52.446;-1.930;2023-12-14T04:58:07;5.18;;;2.46;;
60641;SDS011;46837;52.446;-1.930;2023-12-14T04:59:07;9.00;;;2.24;;
60641;SDS011;46837;52.446;-1.930;2023-12-14T05:00:07;7.66;;;2.54;;
60641;SDS011;46837;52.446;-1.930;2023-12-14T05:01:07;6.18;;;2.58;;
60641;SDS011;46837;52.446;-1.930;2023-12-14T05:02:07;7.00;;;2.22;;
60641;SDS011;46837;52.446;-1.930;2023-12-14T05:03:07;5.54;;;2.44;;
60641;SDS011;46837;52.446;-1.930;2023-12-14T05:04:07;5.88;;;2.26;;
60641;SDS011;46837;52.446;-1.930;2023-12-14T05:05:07;10.76;;;2.82;;
60641;SDS011;46837;52.446;-1.930;2023-12-14T05:06:07;5.10;;;2.76;;
60641;SDS011;46837;52.446;-1.930;2023-12-14T05:07:07;4.32;;;2.04;;
60641;SDS011;46837;52.446;-1.930;2023-12-14T05:08:07;9.14;;;2.58;;
60641;SDS011;46837;52.446;-1.930;2023-12-14T05:09:07;8.14;;;2.46;;
60641;SDS011;46837;52.446;-1.930;2023-12-14T05:10:07;9.44;;;2.66;;
60641;SDS011;46837;52.446;-1.930;2023-12-14T05:11:07;8.70;;;2.68;;
60641;SDS011;46837;52.446;-1.930;2023-12-14T05:12:07;7.52;;;1.64;;
60641;SDS011;46837;52.446;-1.930;2023-12-14T05:13:07;8.08;;;2.38;;
60641;SDS011;46837;52.446;-1.930;2023-12-14T05:14:07;6.80;;;2.26;;
60641;SDS011;46837;52.446;-1.930;2023-12-14T05:15:07;7.46;;;1.80;;
60641;SDS011;46837;52.446;-1.930;2023-12-14T05:16:12;6.04;;;2.62;;
60641;SDS011;46837;52.446;-1.930;2023-12-14T05:17:07;8.46;;;2.08;;
60641;SDS011;46837;52.446;-1.930;2023-12-14T05:18:07;3.32;;;1.96;;
60641;SDS011;46837;52.446;-1.930;2023-12-14T05:19:07;4.98;;;2.20;;
60641;SDS011;46837;52.446;-1.930;2023-12-14T05:20:10;5.08;;;2.16;;
60641;SDS011;46837;52.446;-1.930;2023-12-14T05:21:07;4.96;;;1.96;;
60641;SDS011;46837;52.446;-1.930;2023-12-14T05:22:07;6.00;;;1.86;;
60641;SDS011;46837;52.446;-1.930;2023-12-14T05:23:07;5.26;;;1.68;;
60641;SDS011;46837;52.446;-1.930;2023-12-14T05:24:07;3.62;;;1.40;;
60641;SDS011;46837;52.446;-1.930;2023-12-14T05:25:07;7.86;;;2.18;;
60641;SDS011;46837;52.446;-1.930;2023-12-14T05:26:07;2.50;;;1.84;;
60641;SDS011;46837;52.446;-1.930;2023-12-14T05:27:07;5.50;;;1.56;;
60641;SDS011;46837;52.446;-1.930;2023-12-14T05:28:07;6.00;;;1.62;;
60641;SDS011;46837;52.446;-1.930;2023-12-14T05:29:07;6.56;;;2.16;;
60641;SDS011;46837;52.446;-1.930;2023-12-14T05:30:07;6.60;;;1.68;;
60641;SDS011;46837;52.446;-1.930;2023-12-14T05:31:07;7.00;;;2.18;;
60641;SDS011;46837;52.446;-1.930;2023-12-14T05:32:07;8.62;;;2.72;;
60641;SDS011;46837;52.446;-1.930;2023-12-14T05:33:07;5.88;;;2.06;;
60641;SDS011;46837;52.446;-1.930;2023-12-14T05:34:07;5.64;;;1.82;;
60641;SDS011;46837;52.446;-1.930;2023-12-14T05:35:07;7.50;;;2.40;;
60641;SDS011;46837;52.446;-1.930;2023-12-14T05:36:09;6.60;;;1.80;;
60641;SDS011;46837;52.446;-1.930;2023-12-14T05:37:07;6.14;;;2.16;;
60641;SDS011;46837;52.446;-1.930;2023-12-14T05:38:07;5.72;;;1.54;;
60641;SDS011;46837;52.446;-1.930;2023-12-14T05:39:07;7.90;;;1.92;;
60641;SDS011;46837;52.446;-1.930;2023-12-14T05:40:07;6.22;;;2.06;;
60641;SDS011;46837;52.446;-1.930;2023-12-14T05:41:07;4.80;;;2.16;;
60641;SDS011;46837;52.446;-1.930;2023-12-14T05:42:07;6.90;;;1.94;;
60641;SDS011;46837;52.446;-1.930;2023-12-14T05:43:07;9.76;;;2.66;;
60641;SDS011;46837;52.446;-1.930;2023-12-14T05:44:07;5.02;;;1.40;;
60641;SDS011;46837;52.446;-1.930;2023-12-14T05:45:07;8.60;;;2.42;;
60641;SDS011;46837;52.446;-1.930;2023-12-14T05:46:07;7.38;;;2.26;;
60641;SDS011;46837;52.446;-1.930;2023-12-14T05:47:07;10.84;;;2.36;;
60641;SDS011;46837;52.446;-1.930;2023-12-14T05:48:08;10.00;;;2.32;;
60641;SDS011;46837;52.446;-1.930;2023-12-14T05:49:07;6.78;;;2.64;;
60641;SDS011;46837;52.446;-1.930;2023-12-14T05:50:07;8.18;;;3.30;;
60641;SDS011;46837;52.446;-1.930;2023-12-14T05:51:07;10.16;;;2.50;;
60641;SDS011;46837;52.446;-1.930;2023-12-14T05:52:07;11.32;;;2.16;;